sensor_id;sensor_type;location;lat;lon;timestamp;temperature;humidity
1075;DHT22;526;51.392;12.448;2022-11-15T00:01:35;5.70;97.30
1075;DHT22;526;51.392;12.448;2022-11-15T00:04:03;5.60;97.30
1075;DHT22;526;51.392;12.448;2022-11-15T00:06:28;5.60;97.30
1075;DHT22;526;51.392;12.448;2022-11-15T00:08:57;5.50;97.30
1075;DHT22;526;51.392;12.448;2022-11-15T00:11:22;5.50;97.30
1075;DHT22;526;51.392;12.448;2022-11-15T00:13:48;5.50;97.30
1075;DHT22;526;51.392;12.448;2022-11-15T00:16:13;5.50;97.30
1075;DHT22;526;51.392;12.448;2022-11-15T00:18:39;5.60;97.30
1075;DHT22;526;51.392;12.448;2022-11-15T00:21:07;5.60;97.30
1075;DHT22;526;51.392;12.448;2022-11-15T00:23:33;5.60;97.30
1075;DHT22;526;51.392;12.448;2022-11-15T00:25:59;5.70;97.30
1075;DHT22;526;51.392;12.448;2022-11-15T00:28:25;5.80;97.30
1075;DHT22;526;51.392;12.448;2022-11-15T00:30:51;5.80;97.30
1075;DHT22;526;51.392;12.448;2022-11-15T00:33:17;5.80;97.30
1075;DHT22;526;51.392;12.448;2022-11-15T00:35:42;5.90;97.30
1075;DHT22;526;51.392;12.448;2022-11-15T00:38:08;5.90;97.30
1075;DHT22;526;51.392;12.448;2022-11-15T00:40:33;5.90;97.30
1075;DHT22;526;51.392;12.448;2022-11-15T00:42:59;5.90;97.30
1075;DHT22;526;51.392;12.448;2022-11-15T00:45:25;5.90;97.30
1075;DHT22;526;51.392;12.448;2022-11-15T00:47:51;5.90;97.30
1075;DHT22;526;51.392;12.448;2022-11-15T00:50:17;5.90;97.30
1075;DHT22;526;51.392;12.448;2022-11-15T00:52:43;5.90;97.30
1075;DHT22;526;51.392;12.448;2022-11-15T00:55:19;5.90;97.30
1075;DHT22;526;51.392;12.448;2022-11-15T00:57:45;5.90;97.30
1075;DHT22;526;51.392;12.448;2022-11-15T01:00:11;6.00;97.30
1075;DHT22;526;51.392;12.448;2022-11-15T01:02:37;6.00;97.30
1075;DHT22;526;51.392;12.448;2022-11-15T01:05:03;6.00;97.30
1075;DHT22;526;51.392;12.448;2022-11-15T01:07:29;6.00;97.30
1075;DHT22;526;51.392;12.448;2022-11-15T01:09:55;6.10;97.30
1075;DHT22;526;51.392;12.448;2022-11-15T01:12:20;6.10;97.30
1075;DHT22;526;51.392;12.448;2022-11-15T01:14:46;6.10;97.30
1075;DHT22;526;51.392;12.448;2022-11-15T01:17:11;6.10;97.30
1075;DHT22;526;51.392;12.448;2022-11-15T01:19:37;6.10;97.30
1075;DHT22;526;51.392;12.448;2022-11-15T01:22:02;6.10;97.30
1075;DHT22;526;51.392;12.448;2022-11-15T01:24:28;6.10;97.30
1075;DHT22;526;51.392;12.448;2022-11-15T01:26:53;6.10;97.30
1075;DHT22;526;51.392;12.448;2022-11-15T01:29:19;6.00;97.30
1075;DHT22;526;51.392;12.448;2022-11-15T01:31:44;6.00;97.30
1075;DHT22;526;51.392;12.448;2022-11-15T01:34:10;6.00;97.30
1075;DHT22;526;51.392;12.448;2022-11-15T01:36:36;6.00;97.30
1075;DHT22;526;51.392;12.448;2022-11-15T01:39:02;6.00;97.30
1075;DHT22;526;51.392;12.448;2022-11-15T01:41:30;6.00;97.30
1075;DHT22;526;51.392;12.448;2022-11-15T01:44:28;6.00;97.30
1075;DHT22;526;51.392;12.448;2022-11-15T01:46:44;6.00;97.30
1075;DHT22;526;51.392;12.448;2022-11-15T01:49:14;6.00;97.30
1075;DHT22;526;51.392;12.448;2022-11-15T01:51:40;6.00;97.30
1075;DHT22;526;51.392;12.448;2022-11-15T01:54:10;6.00;97.30
1075;DHT22;526;51.392;12.448;2022-11-15T01:56:46;6.00;97.30
1075;DHT22;526;51.392;12.448;2022-11-15T01:59:13;6.10;97.30
1075;DHT22;526;51.392;12.448;2022-11-15T02:01:40;6.10;97.30
1075;DHT22;526;51.392;12.448;2022-11-15T02:04:18;6.10;97.30
1075;DHT22;526;51.392;12.448;2022-11-15T02:06:46;6.10;97.30
1075;DHT22;526;51.392;12.448;2022-11-15T02:09:13;6.10;97.30
1075;DHT22;526;51.392;12.448;2022-11-15T02:11:39;6.10;97.30
1075;DHT22;526;51.392;12.448;2022-11-15T02:14:06;6.10;97.30
1075;DHT22;526;51.392;12.448;2022-11-15T02:30:27;6.20;97.30
1075;DHT22;526;51.392;12.448;2022-11-15T02:33:00;6.20;97.30
1075;DHT22;526;51.392;12.448;2022-11-15T02:35:37;6.20;97.30
1075;DHT22;526;51.392;12.448;2022-11-15T02:41:00;6.20;97.30
1075;DHT22;526;51.392;12.448;2022-11-15T02:43:59;6.20;97.30
1075;DHT22;526;51.392;12.448;2022-11-15T02:46:40;6.10;97.30
1075;DHT22;526;51.392;12.448;2022-11-15T02:49:28;6.10;97.30
1075;DHT22;526;51.392;12.448;2022-11-15T02:51:56;6.00;97.30
1075;DHT22;526;51.392;12.448;2022-11-15T02:54:24;5.90;97.30
1075;DHT22;526;51.392;12.448;2022-11-15T02:56:53;5.80;97.30
1075;DHT22;526;51.392;12.448;2022-11-15T03:09:32;5.40;97.30
1075;DHT22;526;51.392;12.448;2022-11-15T03:12:07;5.20;97.30
1075;DHT22;526;51.392;12.448;2022-11-15T03:14:42;5.10;97.30
1075;DHT22;526;51.392;12.448;2022-11-15T03:17:26;5.00;97.30
1075;DHT22;526;51.392;12.448;2022-11-15T03:20:00;5.00;97.30
1075;DHT22;526;51.392;12.448;2022-11-15T03:22:29;5.00;97.30
1075;DHT22;526;51.392;12.448;2022-11-15T03:25:02;5.10;97.30
1075;DHT22;526;51.392;12.448;2022-11-15T03:27:33;5.10;97.30
1075;DHT22;526;51.392;12.448;2022-11-15T03:30:05;5.20;97.30
1075;DHT22;526;51.392;12.448;2022-11-15T03:32:36;5.20;97.30
1075;DHT22;526;51.392;12.448;2022-11-15T03:35:06;5.30;97.30
1075;DHT22;526;51.392;12.448;2022-11-15T03:37:44;5.30;97.30
1075;DHT22;526;51.392;12.448;2022-11-15T03:40:11;5.30;97.30
1075;DHT22;526;51.392;12.448;2022-11-15T03:45:32;5.50;97.30
1075;DHT22;526;51.392;12.448;2022-11-15T03:48:12;5.60;97.30
1075;DHT22;526;51.392;12.448;2022-11-15T03:50:38;5.60;97.30
1075;DHT22;526;51.392;12.448;2022-11-15T03:53:04;5.60;97.30
1075;DHT22;526;51.392;12.448;2022-11-15T03:55:32;5.70;97.30
1075;DHT22;526;51.392;12.448;2022-11-15T03:57:59;5.70;97.30
1075;DHT22;526;51.392;12.448;2022-11-15T04:00:25;5.70;97.30
1075;DHT22;526;51.392;12.448;2022-11-15T04:02:50;5.60;97.30
1075;DHT22;526;51.392;12.448;2022-11-15T04:05:16;5.60;97.30
1075;DHT22;526;51.392;12.448;2022-11-15T04:07:41;5.50;97.30
1075;DHT22;526;51.392;12.448;2022-11-15T04:10:09;5.40;97.30
1075;DHT22;526;51.392;12.448;2022-11-15T04:12:38;5.40;97.30
1075;DHT22;526;51.392;12.448;2022-11-15T04:15:09;5.30;97.30
1075;DHT22;526;51.392;12.448;2022-11-15T04:17:37;5.20;97.30
1075;DHT22;526;51.392;12.448;2022-11-15T04:20:05;5.30;97.30
1075;DHT22;526;51.392;12.448;2022-11-15T04:22:52;5.20;97.30
1075;DHT22;526;51.392;12.448;2022-11-15T04:25:36;5.20;97.30
1075;DHT22;526;51.392;12.448;2022-11-15T04:28:02;5.20;97.30
1075;DHT22;526;51.392;12.448;2022-11-15T04:30:28;5.20;97.30
1075;DHT22;526;51.392;12.448;2022-11-15T04:32:53;5.20;97.30
1075;DHT22;526;51.392;12.448;2022-11-15T04:35:19;5.30;97.30
1075;DHT22;526;51.392;12.448;2022-11-15T04:37:44;5.20;97.30
1075;DHT22;526;51.392;12.448;2022-11-15T04:40:10;5.20;97.30
1075;DHT22;526;51.392;12.448;2022-11-15T04:42:36;5.30;97.30
1075;DHT22;526;51.392;12.448;2022-11-15T04:45:02;5.40;97.30
1075;DHT22;526;51.392;12.448;2022-11-15T04:47:27;5.40;97.30
1075;DHT22;526;51.392;12.448;2022-11-15T04:49:54;5.40;97.30
1075;DHT22;526;51.392;12.448;2022-11-15T04:52:20;5.30;97.30
1075;DHT22;526;51.392;12.448;2022-11-15T04:54:45;5.40;97.30
1075;DHT22;526;51.392;12.448;2022-11-15T04:57:11;5.50;97.30
1075;DHT22;526;51.392;12.448;2022-11-15T04:59:37;5.40;97.30
1075;DHT22;526;51.392;12.448;2022-11-15T05:02:02;5.30;97.30
1075;DHT22;526;51.392;12.448;2022-11-15T05:04:28;5.20;97.30
1075;DHT22;526;51.392;12.448;2022-11-15T05:06:53;5.20;97.30
1075;DHT22;526;51.392;12.448;2022-11-15T05:09:19;5.40;97.30
1075;DHT22;526;51.392;12.448;2022-11-15T05:11:45;5.40;97.30
1075;DHT22;526;51.392;12.448;2022-11-15T05:14:12;5.40;97.30
1075;DHT22;526;51.392;12.448;2022-11-15T05:16:38;5.50;97.30
1075;DHT22;526;51.392;12.448;2022-11-15T05:19:04;5.60;97.30
1075;DHT22;526;51.392;12.448;2022-11-15T05:21:29;5.70;97.30
1075;DHT22;526;51.392;12.448;2022-11-15T05:23:55;5.80;97.30
1075;DHT22;526;51.392;12.448;2022-11-15T05:26:21;5.90;97.30
1075;DHT22;526;51.392;12.448;2022-11-15T05:28:46;6.00;97.30
1075;DHT22;526;51.392;12.448;2022-11-15T05:31:14;6.00;97.30
1075;DHT22;526;51.392;12.448;2022-11-15T05:33:41;6.10;97.30
1075;DHT22;526;51.392;12.448;2022-11-15T05:38:41;6.10;97.30
1075;DHT22;526;51.392;12.448;2022-11-15T05:41:07;6.20;97.30
1075;DHT22;526;51.392;12.448;2022-11-15T05:43:35;6.20;97.30
1075;DHT22;526;51.392;12.448;2022-11-15T05:46:02;6.20;97.30
1075;DHT22;526;51.392;12.448;2022-11-15T05:48:28;6.30;97.30
1075;DHT22;526;51.392;12.448;2022-11-15T05:50:54;6.30;97.30
1075;DHT22;526;51.392;12.448;2022-11-15T05:53:21;6.30;97.30
1075;DHT22;526;51.392;12.448;2022-11-15T05:55:48;6.30;97.30
1075;DHT22;526;51.392;12.448;2022-11-15T05:58:14;6.30;97.30
1075;DHT22;526;51.392;12.448;2022-11-15T06:00:39;6.20;97.30
1075;DHT22;526;51.392;12.448;2022-11-15T06:03:05;6.20;97.30
1075;DHT22;526;51.392;12.448;2022-11-15T06:05:31;6.10;97.30
1075;DHT22;526;51.392;12.448;2022-11-15T06:07:59;6.10;97.30
1075;DHT22;526;51.392;12.448;2022-11-15T06:10:25;6.10;97.30
1075;DHT22;526;51.392;12.448;2022-11-15T06:13:01;6.00;97.30
1075;DHT22;526;51.392;12.448;2022-11-15T06:15:27;6.00;97.30
1075;DHT22;526;51.392;12.448;2022-11-15T06:17:57;5.90;97.30
1075;DHT22;526;51.392;12.448;2022-11-15T06:20:29;5.80;97.30
1075;DHT22;526;51.392;12.448;2022-11-15T06:23:11;5.70;97.30
1075;DHT22;526;51.392;12.448;2022-11-15T06:25:37;5.70;97.30
1075;DHT22;526;51.392;12.448;2022-11-15T06:28:10;5.70;97.30
1075;DHT22;526;51.392;12.448;2022-11-15T06:30:35;5.60;97.30
1075;DHT22;526;51.392;12.448;2022-11-15T06:33:03;5.60;97.30
1075;DHT22;526;51.392;12.448;2022-11-15T06:35:37;5.60;97.30
1075;DHT22;526;51.392;12.448;2022-11-15T06:38:05;5.60;97.30
1075;DHT22;526;51.392;12.448;2022-11-15T06:40:33;5.60;97.30
1075;DHT22;526;51.392;12.448;2022-11-15T06:42:59;5.60;97.30
1075;DHT22;526;51.392;12.448;2022-11-15T06:45:25;5.60;97.30
1075;DHT22;526;51.392;12.448;2022-11-15T06:47:51;5.60;97.30
1075;DHT22;526;51.392;12.448;2022-11-15T06:50:16;5.60;97.30
1075;DHT22;526;51.392;12.448;2022-11-15T06:52:42;5.60;97.30
1075;DHT22;526;51.392;12.448;2022-11-15T06:55:08;5.60;97.30
1075;DHT22;526;51.392;12.448;2022-11-15T06:57:33;5.60;97.30
1075;DHT22;526;51.392;12.448;2022-11-15T06:59:59;5.60;97.30
1075;DHT22;526;51.392;12.448;2022-11-15T07:02:25;5.50;97.30
1075;DHT22;526;51.392;12.448;2022-11-15T07:04:51;5.50;97.30
1075;DHT22;526;51.392;12.448;2022-11-15T07:07:16;5.50;97.30
1075;DHT22;526;51.392;12.448;2022-11-15T07:09:42;5.50;97.30
1075;DHT22;526;51.392;12.448;2022-11-15T07:12:09;5.50;97.30
1075;DHT22;526;51.392;12.448;2022-11-15T07:14:35;5.50;97.30
1075;DHT22;526;51.392;12.448;2022-11-15T07:17:03;5.50;97.30
1075;DHT22;526;51.392;12.448;2022-11-15T07:19:29;5.50;97.30
1075;DHT22;526;51.392;12.448;2022-11-15T07:21:54;5.50;97.30
1075;DHT22;526;51.392;12.448;2022-11-15T07:24:20;5.50;97.30
1075;DHT22;526;51.392;12.448;2022-11-15T07:26:45;5.60;97.30
1075;DHT22;526;51.392;12.448;2022-11-15T07:29:11;5.60;97.30
1075;DHT22;526;51.392;12.448;2022-11-15T07:31:36;5.60;97.30
1075;DHT22;526;51.392;12.448;2022-11-15T07:34:03;5.70;97.30
1075;DHT22;526;51.392;12.448;2022-11-15T07:36:28;5.80;97.30
1075;DHT22;526;51.392;12.448;2022-11-15T07:38:54;6.00;97.30
1075;DHT22;526;51.392;12.448;2022-11-15T07:41:19;6.20;97.30
1075;DHT22;526;51.392;12.448;2022-11-15T07:43:45;6.30;97.30
1075;DHT22;526;51.392;12.448;2022-11-15T07:46:11;6.50;97.30
1075;DHT22;526;51.392;12.448;2022-11-15T07:49:21;6.60;97.30
1075;DHT22;526;51.392;12.448;2022-11-15T07:59:02;7.20;97.30
1075;DHT22;526;51.392;12.448;2022-11-15T08:07:01;7.60;97.30
1075;DHT22;526;51.392;12.448;2022-11-15T08:09:29;7.70;97.30
1075;DHT22;526;51.392;12.448;2022-11-15T08:12:01;7.80;97.30
1075;DHT22;526;51.392;12.448;2022-11-15T08:14:40;7.90;97.30
1075;DHT22;526;51.392;12.448;2022-11-15T08:17:11;8.00;97.30
1075;DHT22;526;51.392;12.448;2022-11-15T08:19:39;8.10;97.30
1075;DHT22;526;51.392;12.448;2022-11-15T08:22:32;8.20;97.30
1075;DHT22;526;51.392;12.448;2022-11-15T08:25:19;8.20;97.30
1075;DHT22;526;51.392;12.448;2022-11-15T08:28:03;8.30;97.30
1075;DHT22;526;51.392;12.448;2022-11-15T08:30:30;8.40;97.30
1075;DHT22;526;51.392;12.448;2022-11-15T08:33:01;8.50;97.30
1075;DHT22;526;51.392;12.448;2022-11-15T08:35:29;8.70;97.30
1075;DHT22;526;51.392;12.448;2022-11-15T08:44:11;9.10;97.30
1075;DHT22;526;51.392;12.448;2022-11-15T08:46:39;9.20;97.30
1075;DHT22;526;51.392;12.448;2022-11-15T08:49:12;9.40;97.30
1075;DHT22;526;51.392;12.448;2022-11-15T08:51:51;9.50;97.30
1075;DHT22;526;51.392;12.448;2022-11-15T08:54:40;9.60;97.30
1075;DHT22;526;51.392;12.448;2022-11-15T08:57:19;9.80;97.30
1075;DHT22;526;51.392;12.448;2022-11-15T08:59:51;10.00;97.30
1075;DHT22;526;51.392;12.448;2022-11-15T09:02:19;10.10;97.30
1075;DHT22;526;51.392;12.448;2022-11-15T09:05:10;10.20;97.30
1075;DHT22;526;51.392;12.448;2022-11-15T09:07:58;10.30;97.30
1075;DHT22;526;51.392;12.448;2022-11-15T09:13:40;10.60;97.30
1075;DHT22;526;51.392;12.448;2022-11-15T09:16:11;10.70;97.30
1075;DHT22;526;51.392;12.448;2022-11-15T09:18:40;10.90;97.30
1075;DHT22;526;51.392;12.448;2022-11-15T09:21:10;11.00;97.30
1075;DHT22;526;51.392;12.448;2022-11-15T09:23:42;11.10;97.30
1075;DHT22;526;51.392;12.448;2022-11-15T09:26:21;11.20;97.30
1075;DHT22;526;51.392;12.448;2022-11-15T09:28:59;11.30;97.30
1075;DHT22;526;51.392;12.448;2022-11-15T09:37:01;11.50;97.30
1075;DHT22;526;51.392;12.448;2022-11-15T09:39:30;11.70;97.30
1075;DHT22;526;51.392;12.448;2022-11-15T09:50:49;12.10;97.30
1075;DHT22;526;51.392;12.448;2022-11-15T09:53:29;12.20;97.30
1075;DHT22;526;51.392;12.448;2022-11-15T09:56:18;12.30;97.30
1075;DHT22;526;51.392;12.448;2022-11-15T10:01:36;12.50;97.30
1075;DHT22;526;51.392;12.448;2022-11-15T10:04:05;12.70;97.30
1075;DHT22;526;51.392;12.448;2022-11-15T10:06:35;12.70;97.30
1075;DHT22;526;51.392;12.448;2022-11-15T10:09:09;12.80;97.30
1075;DHT22;526;51.392;12.448;2022-11-15T10:11:37;12.90;97.30
1075;DHT22;526;51.392;12.448;2022-11-15T10:14:10;12.90;97.30
1075;DHT22;526;51.392;12.448;2022-11-15T10:24:37;13.30;96.60
1075;DHT22;526;51.392;12.448;2022-11-15T10:27:12;13.40;95.80
1075;DHT22;526;51.392;12.448;2022-11-15T10:29:43;13.50;95.80
1075;DHT22;526;51.392;12.448;2022-11-15T10:32:12;13.70;95.50
1075;DHT22;526;51.392;12.448;2022-11-15T10:34:40;13.80;95.50
1075;DHT22;526;51.392;12.448;2022-11-15T10:37:05;13.90;95.40
1075;DHT22;526;51.392;12.448;2022-11-15T10:39:31;13.90;95.60
1075;DHT22;526;51.392;12.448;2022-11-15T10:42:15;14.00;95.60
1075;DHT22;526;51.392;12.448;2022-11-15T10:44:43;14.00;95.30
1075;DHT22;526;51.392;12.448;2022-11-15T10:47:38;14.10;96.20
1075;DHT22;526;51.392;12.448;2022-11-15T10:50:11;14.20;96.10
1075;DHT22;526;51.392;12.448;2022-11-15T10:52:50;14.40;95.70
1075;DHT22;526;51.392;12.448;2022-11-15T10:57:52;14.60;94.80
1075;DHT22;526;51.392;12.448;2022-11-15T11:05:41;14.90;93.30
1075;DHT22;526;51.392;12.448;2022-11-15T11:10:35;15.20;93.80
1075;DHT22;526;51.392;12.448;2022-11-15T11:13:26;15.30;93.30
1075;DHT22;526;51.392;12.448;2022-11-15T11:24:40;15.60;92.40
1075;DHT22;526;51.392;12.448;2022-11-15T11:27:37;15.70;92.50
1075;DHT22;526;51.392;12.448;2022-11-15T11:30:24;15.80;92.10
1075;DHT22;526;51.392;12.448;2022-11-15T11:35:47;15.80;91.10
1075;DHT22;526;51.392;12.448;2022-11-15T11:44:15;15.80;91.70
1075;DHT22;526;51.392;12.448;2022-11-15T11:49:41;16.00;90.40
1075;DHT22;526;51.392;12.448;2022-11-15T11:52:28;16.10;90.60
1075;DHT22;526;51.392;12.448;2022-11-15T11:55:15;16.20;90.10
1075;DHT22;526;51.392;12.448;2022-11-15T12:00:24;16.40;90.10
1075;DHT22;526;51.392;12.448;2022-11-15T12:03:11;16.50;89.90
1075;DHT22;526;51.392;12.448;2022-11-15T12:05:54;16.70;89.00
1075;DHT22;526;51.392;12.448;2022-11-15T12:08:52;16.80;88.00
1075;DHT22;526;51.392;12.448;2022-11-15T12:13:50;16.90;88.10
1075;DHT22;526;51.392;12.448;2022-11-15T12:16:26;17.00;88.10
1075;DHT22;526;51.392;12.448;2022-11-15T12:18:54;17.00;87.50
1075;DHT22;526;51.392;12.448;2022-11-15T12:21:35;17.00;87.80
1075;DHT22;526;51.392;12.448;2022-11-15T12:24:06;17.00;88.50
1075;DHT22;526;51.392;12.448;2022-11-15T12:26:44;17.00;87.80
1075;DHT22;526;51.392;12.448;2022-11-15T12:29:38;17.00;88.00
1075;DHT22;526;51.392;12.448;2022-11-15T12:32:10;17.10;88.40
1075;DHT22;526;51.392;12.448;2022-11-15T12:34:45;17.40;88.10
1075;DHT22;526;51.392;12.448;2022-11-15T12:42:42;18.00;86.10
1075;DHT22;526;51.392;12.448;2022-11-15T12:58:59;18.20;84.40
1075;DHT22;526;51.392;12.448;2022-11-15T13:06:43;18.50;83.60
1075;DHT22;526;51.392;12.448;2022-11-15T13:12:03;18.70;82.80
1075;DHT22;526;51.392;12.448;2022-11-15T13:22:44;19.00;81.80
1075;DHT22;526;51.392;12.448;2022-11-15T13:27:48;19.10;82.80
1075;DHT22;526;51.392;12.448;2022-11-15T13:30:20;19.00;82.50
1075;DHT22;526;51.392;12.448;2022-11-15T13:32:46;19.00;83.00
1075;DHT22;526;51.392;12.448;2022-11-15T13:35:28;18.90;83.20
1075;DHT22;526;51.392;12.448;2022-11-15T13:37:55;18.90;83.60
1075;DHT22;526;51.392;12.448;2022-11-15T13:40:33;18.70;83.70
1075;DHT22;526;51.392;12.448;2022-11-15T13:42:59;18.70;84.10
1075;DHT22;526;51.392;12.448;2022-11-15T13:45:25;18.70;84.30
1075;DHT22;526;51.392;12.448;2022-11-15T13:47:56;18.60;84.40
1075;DHT22;526;51.392;12.448;2022-11-15T13:50:26;18.50;84.10
1075;DHT22;526;51.392;12.448;2022-11-15T13:52:53;18.40;83.90
1075;DHT22;526;51.392;12.448;2022-11-15T13:55:22;18.20;84.30
1075;DHT22;526;51.392;12.448;2022-11-15T13:57:51;18.10;84.80
1075;DHT22;526;51.392;12.448;2022-11-15T14:00:41;18.30;84.80
1075;DHT22;526;51.392;12.448;2022-11-15T14:03:27;18.40;84.30
1075;DHT22;526;51.392;12.448;2022-11-15T14:06:14;18.50;84.40
1075;DHT22;526;51.392;12.448;2022-11-15T14:08:42;18.50;84.40
1075;DHT22;526;51.392;12.448;2022-11-15T14:11:23;18.60;84.30
1075;DHT22;526;51.392;12.448;2022-11-15T14:16:43;18.30;84.90
1075;DHT22;526;51.392;12.448;2022-11-15T14:19:33;18.20;85.20
1075;DHT22;526;51.392;12.448;2022-11-15T14:24:34;17.90;86.00
1075;DHT22;526;51.392;12.448;2022-11-15T14:27:22;17.80;86.50
1075;DHT22;526;51.392;12.448;2022-11-15T14:29:48;17.60;87.00
1075;DHT22;526;51.392;12.448;2022-11-15T14:32:19;17.40;87.50
1075;DHT22;526;51.392;12.448;2022-11-15T14:34:47;17.20;87.90
1075;DHT22;526;51.392;12.448;2022-11-15T14:37:26;17.00;88.40
1075;DHT22;526;51.392;12.448;2022-11-15T14:39:52;16.80;88.90
1075;DHT22;526;51.392;12.448;2022-11-15T14:42:19;16.50;89.30
1075;DHT22;526;51.392;12.448;2022-11-15T14:44:46;16.30;90.00
1075;DHT22;526;51.392;12.448;2022-11-15T14:47:12;16.10;90.50
1075;DHT22;526;51.392;12.448;2022-11-15T14:49:37;15.90;91.00
1075;DHT22;526;51.392;12.448;2022-11-15T14:52:15;15.80;91.20
1075;DHT22;526;51.392;12.448;2022-11-15T14:54:41;15.60;91.60
1075;DHT22;526;51.392;12.448;2022-11-15T14:57:07;15.50;92.00
1075;DHT22;526;51.392;12.448;2022-11-15T14:59:32;15.30;92.50
1075;DHT22;526;51.392;12.448;2022-11-15T15:01:58;15.20;92.60
1075;DHT22;526;51.392;12.448;2022-11-15T15:04:24;15.20;92.80
1075;DHT22;526;51.392;12.448;2022-11-15T15:06:49;15.10;93.00
1075;DHT22;526;51.392;12.448;2022-11-15T15:09:15;15.00;93.30
1075;DHT22;526;51.392;12.448;2022-11-15T15:11:40;14.80;93.50
1075;DHT22;526;51.392;12.448;2022-11-15T15:14:08;14.60;93.70
1075;DHT22;526;51.392;12.448;2022-11-15T15:16:33;14.50;94.20
1075;DHT22;526;51.392;12.448;2022-11-15T15:18:59;14.40;94.50
1075;DHT22;526;51.392;12.448;2022-11-15T15:21:28;14.20;94.90
1075;DHT22;526;51.392;12.448;2022-11-15T15:23:54;14.10;95.30
1075;DHT22;526;51.392;12.448;2022-11-15T15:26:20;13.90;95.40
1075;DHT22;526;51.392;12.448;2022-11-15T15:28:46;13.80;95.80
1075;DHT22;526;51.392;12.448;2022-11-15T15:31:14;13.70;96.10
1075;DHT22;526;51.392;12.448;2022-11-15T15:33:39;13.50;96.20
1075;DHT22;526;51.392;12.448;2022-11-15T15:36:11;13.30;96.50
1075;DHT22;526;51.392;12.448;2022-11-15T15:38:37;13.10;96.90
1075;DHT22;526;51.392;12.448;2022-11-15T15:41:10;13.00;97.20
1075;DHT22;526;51.392;12.448;2022-11-15T15:43:36;12.90;97.30
1075;DHT22;526;51.392;12.448;2022-11-15T15:46:01;12.80;97.30
1075;DHT22;526;51.392;12.448;2022-11-15T15:48:27;12.70;97.30
1075;DHT22;526;51.392;12.448;2022-11-15T15:50:53;12.60;97.30
1075;DHT22;526;51.392;12.448;2022-11-15T15:53:18;12.50;97.30
1075;DHT22;526;51.392;12.448;2022-11-15T15:55:44;12.40;97.30
1075;DHT22;526;51.392;12.448;2022-11-15T15:58:09;12.30;97.30
1075;DHT22;526;51.392;12.448;2022-11-15T16:00:35;12.20;97.30
1075;DHT22;526;51.392;12.448;2022-11-15T16:03:02;12.10;97.30
1075;DHT22;526;51.392;12.448;2022-11-15T16:05:27;12.00;97.30
1075;DHT22;526;51.392;12.448;2022-11-15T16:07:53;11.90;97.30
1075;DHT22;526;51.392;12.448;2022-11-15T16:10:31;11.90;97.30
1075;DHT22;526;51.392;12.448;2022-11-15T16:12:57;11.80;97.30
1075;DHT22;526;51.392;12.448;2022-11-15T16:15:25;11.70;97.30
1075;DHT22;526;51.392;12.448;2022-11-15T16:17:57;11.60;97.30
1075;DHT22;526;51.392;12.448;2022-11-15T16:20:30;11.60;97.30
1075;DHT22;526;51.392;12.448;2022-11-15T16:22:56;11.50;97.30
1075;DHT22;526;51.392;12.448;2022-11-15T16:25:22;11.50;97.30
1075;DHT22;526;51.392;12.448;2022-11-15T16:27:48;11.40;97.30
1075;DHT22;526;51.392;12.448;2022-11-15T16:30:16;11.40;97.30
1075;DHT22;526;51.392;12.448;2022-11-15T16:32:42;11.30;97.30
1075;DHT22;526;51.392;12.448;2022-11-15T16:35:11;11.30;97.30
1075;DHT22;526;51.392;12.448;2022-11-15T16:37:37;11.20;97.30
1075;DHT22;526;51.392;12.448;2022-11-15T16:42:49;11.10;97.30
1075;DHT22;526;51.392;12.448;2022-11-15T16:45:18;11.00;97.30
1075;DHT22;526;51.392;12.448;2022-11-15T16:47:46;11.00;97.30
1075;DHT22;526;51.392;12.448;2022-11-15T16:50:19;10.80;97.30
1075;DHT22;526;51.392;12.448;2022-11-15T16:52:49;10.80;97.30
1075;DHT22;526;51.392;12.448;2022-11-15T16:55:15;10.70;97.30
1075;DHT22;526;51.392;12.448;2022-11-15T16:57:40;10.50;97.30
1075;DHT22;526;51.392;12.448;2022-11-15T17:00:07;10.40;97.30
1075;DHT22;526;51.392;12.448;2022-11-15T17:02:34;10.30;97.30
1075;DHT22;526;51.392;12.448;2022-11-15T17:04:59;10.20;97.30
1075;DHT22;526;51.392;12.448;2022-11-15T17:07:25;10.20;97.30
1075;DHT22;526;51.392;12.448;2022-11-15T17:09:50;10.10;97.30
1075;DHT22;526;51.392;12.448;2022-11-15T17:12:16;10.10;97.30
1075;DHT22;526;51.392;12.448;2022-11-15T17:14:41;10.00;97.30
1075;DHT22;526;51.392;12.448;2022-11-15T17:17:08;9.90;97.30
1075;DHT22;526;51.392;12.448;2022-11-15T17:20:03;9.90;97.30
1075;DHT22;526;51.392;12.448;2022-11-15T17:22:43;9.80;97.30
1075;DHT22;526;51.392;12.448;2022-11-15T17:25:12;9.70;97.30
1075;DHT22;526;51.392;12.448;2022-11-15T17:27:38;9.60;97.30
1075;DHT22;526;51.392;12.448;2022-11-15T17:30:08;9.60;97.30
1075;DHT22;526;51.392;12.448;2022-11-15T17:32:44;9.50;97.30
1075;DHT22;526;51.392;12.448;2022-11-15T17:35:12;9.50;97.30
1075;DHT22;526;51.392;12.448;2022-11-15T17:37:38;9.40;97.30
1075;DHT22;526;51.392;12.448;2022-11-15T17:40:04;9.30;97.30
1075;DHT22;526;51.392;12.448;2022-11-15T17:42:29;9.20;97.30
1075;DHT22;526;51.392;12.448;2022-11-15T17:44:55;9.10;97.30
1075;DHT22;526;51.392;12.448;2022-11-15T17:47:20;9.00;97.30
1075;DHT22;526;51.392;12.448;2022-11-15T17:49:46;9.00;97.30
1075;DHT22;526;51.392;12.448;2022-11-15T17:52:11;8.90;97.30
1075;DHT22;526;51.392;12.448;2022-11-15T17:54:37;8.90;97.30
1075;DHT22;526;51.392;12.448;2022-11-15T17:57:03;8.80;97.30
1075;DHT22;526;51.392;12.448;2022-11-15T18:06:26;8.70;97.30
1075;DHT22;526;51.392;12.448;2022-11-15T18:12:00;8.60;97.30
1075;DHT22;526;51.392;12.448;2022-11-15T18:17:31;8.50;97.30
1075;DHT22;526;51.392;12.448;2022-11-15T18:23:47;8.40;97.30
1075;DHT22;526;51.392;12.448;2022-11-15T18:27:28;8.30;97.30
1075;DHT22;526;51.392;12.448;2022-11-15T18:33:32;8.10;97.30
1075;DHT22;526;51.392;12.448;2022-11-15T18:36:04;8.00;97.30
1075;DHT22;526;51.392;12.448;2022-11-15T18:38:30;8.00;97.30
1075;DHT22;526;51.392;12.448;2022-11-15T18:41:17;8.00;97.30
1075;DHT22;526;51.392;12.448;2022-11-15T18:43:45;7.90;97.30
1075;DHT22;526;51.392;12.448;2022-11-15T18:51:19;7.80;97.30
1075;DHT22;526;51.392;12.448;2022-11-15T18:53:46;7.80;97.30
1075;DHT22;526;51.392;12.448;2022-11-15T18:56:16;7.80;97.30
1075;DHT22;526;51.392;12.448;2022-11-15T18:58:45;7.90;97.30
1075;DHT22;526;51.392;12.448;2022-11-15T19:27:40;7.70;97.30
1075;DHT22;526;51.392;12.448;2022-11-15T19:30:12;7.70;97.30
1075;DHT22;526;51.392;12.448;2022-11-15T19:32:46;7.70;97.30
1075;DHT22;526;51.392;12.448;2022-11-15T19:35:21;7.80;97.30
1075;DHT22;526;51.392;12.448;2022-11-15T19:37:46;7.80;97.30
1075;DHT22;526;51.392;12.448;2022-11-15T19:40:15;7.80;97.30
1075;DHT22;526;51.392;12.448;2022-11-15T19:42:41;7.80;97.30
1075;DHT22;526;51.392;12.448;2022-11-15T19:45:07;7.70;97.30
1075;DHT22;526;51.392;12.448;2022-11-15T19:47:32;7.70;97.30
1075;DHT22;526;51.392;12.448;2022-11-15T19:49:58;7.70;97.30
1075;DHT22;526;51.392;12.448;2022-11-15T19:52:23;7.70;97.30
1075;DHT22;526;51.392;12.448;2022-11-15T19:54:49;7.70;97.30
1075;DHT22;526;51.392;12.448;2022-11-15T19:59:56;7.60;97.30
1075;DHT22;526;51.392;12.448;2022-11-15T20:02:22;7.60;97.30
1075;DHT22;526;51.392;12.448;2022-11-15T20:04:47;7.60;97.30
1075;DHT22;526;51.392;12.448;2022-11-15T20:07:13;7.60;97.30